sensor_id;sensor_type;location;lat;lon;timestamp;pressure;altitude;pressure_sealevel;temperature;humidity
80712;BME280;70078;51.596;5.678;2023-09-30T00:00:55;102330.69;;;11.65;84.48
80712;BME280;70078;51.596;5.678;2023-09-30T00:03:21;102375.84;;;11.89;84.68
80712;BME280;70078;51.596;5.678;2023-09-30T00:05:46;102385.56;;;12.00;84.08
80712;BME280;70078;51.596;5.678;2023-09-30T00:08:12;102355.47;;;11.77;83.74
80712;BME280;70078;51.596;5.678;2023-09-30T00:10:37;102416.16;;;12.07;83.51
80712;BME280;70078;51.596;5.678;2023-09-30T00:13:02;102382.19;;;11.88;83.71
80712;BME280;70078;51.596;5.678;2023-09-30T00:15:28;102366.03;;;11.78;83.85
80712;BME280;70078;51.596;5.678;2023-09-30T00:17:53;102309.22;;;11.46;83.81
80712;BME280;70078;51.596;5.678;2023-09-30T00:20:19;102379.81;;;11.94;83.85
80712;BME280;70078;51.596;5.678;2023-09-30T00:22:44;102406.88;;;12.11;84.15
80712;BME280;70078;51.596;5.678;2023-09-30T00:25:10;102321.06;;;11.53;84.16
80712;BME280;70078;51.596;5.678;2023-09-30T00:27:36;102406.34;;;12.17;84.06
80712;BME280;70078;51.596;5.678;2023-09-30T00:30:02;102415.91;;;12.19;83.87
80712;BME280;70078;51.596;5.678;2023-09-30T00:32:29;102391.66;;;12.11;83.67
80712;BME280;70078;51.596;5.678;2023-09-30T00:34:54;102356.28;;;11.98;83.96
80712;BME280;70078;51.596;5.678;2023-09-30T00:37:20;102371.50;;;12.07;83.79
80712;BME280;70078;51.596;5.678;2023-09-30T00:39:45;102392.22;;;12.15;84.12
80712;BME280;70078;51.596;5.678;2023-09-30T00:42:11;102355.41;;;11.88;83.57
80712;BME280;70078;51.596;5.678;2023-09-30T00:44:36;102418.59;;;12.19;83.93
80712;BME280;70078;51.596;5.678;2023-09-30T00:47:02;102412.25;;;12.20;84.29
80712;BME280;70078;51.596;5.678;2023-09-30T00:49:28;102362.03;;;11.93;84.35
80712;BME280;70078;51.596;5.678;2023-09-30T00:51:54;102438.31;;;12.28;84.17
80712;BME280;70078;51.596;5.678;2023-09-30T00:54:21;102411.38;;;12.10;84.13
80712;BME280;70078;51.596;5.678;2023-09-30T00:56:49;102419.56;;;12.18;83.89
80712;BME280;70078;51.596;5.678;2023-09-30T00:59:16;102389.09;;;12.00;83.96
80712;BME280;70078;51.596;5.678;2023-09-30T01:01:43;102359.50;;;11.92;83.84
80712;BME280;70078;51.596;5.678;2023-09-30T01:04:09;102325.34;;;11.65;83.44
80712;BME280;70078;51.596;5.678;2023-09-30T01:06:36;102325.50;;;11.73;84.11
80712;BME280;70078;51.596;5.678;2023-09-30T01:09:01;102388.56;;;12.16;83.98
80712;BME280;70078;51.596;5.678;2023-09-30T01:11:26;102413.38;;;12.18;84.14
80712;BME280;70078;51.596;5.678;2023-09-30T01:13:52;102425.94;;;12.27;83.88
80712;BME280;70078;51.596;5.678;2023-09-30T01:16:17;102442.69;;;12.29;83.56
80712;BME280;70078;51.596;5.678;2023-09-30T01:18:42;102375.38;;;11.84;83.60
80712;BME280;70078;51.596;5.678;2023-09-30T01:21:09;102381.19;;;11.89;83.75
80712;BME280;70078;51.596;5.678;2023-09-30T01:23:35;102371.88;;;11.93;83.98
80712;BME280;70078;51.596;5.678;2023-09-30T01:26:11;102386.25;;;11.92;83.73
80712;BME280;70078;51.596;5.678;2023-09-30T01:28:37;102446.91;;;12.32;83.59
80712;BME280;70078;51.596;5.678;2023-09-30T01:31:03;102449.16;;;12.17;83.03
80712;BME280;70078;51.596;5.678;2023-09-30T01:33:29;102394.91;;;11.75;83.24
80712;BME280;70078;51.596;5.678;2023-09-30T01:35:55;102365.00;;;11.50;82.70
80712;BME280;70078;51.596;5.678;2023-09-30T01:38:21;102374.03;;;11.59;82.80
80712;BME280;70078;51.596;5.678;2023-09-30T01:40:47;102406.06;;;11.80;83.13
80712;BME280;70078;51.596;5.678;2023-09-30T01:43:15;102396.75;;;11.74;83.42
80712;BME280;70078;51.596;5.678;2023-09-30T01:45:41;102422.56;;;11.85;83.49
80712;BME280;70078;51.596;5.678;2023-09-30T01:48:08;102461.34;;;12.00;82.86
80712;BME280;70078;51.596;5.678;2023-09-30T01:50:36;102409.81;;;11.67;83.02
80712;BME280;70078;51.596;5.678;2023-09-30T01:53:01;102420.22;;;11.71;82.73
80712;BME280;70078;51.596;5.678;2023-09-30T01:55:27;102423.19;;;11.67;82.68
80712;BME280;70078;51.596;5.678;2023-09-30T01:57:52;102431.09;;;11.79;82.95
80712;BME280;70078;51.596;5.678;2023-09-30T02:00:17;102414.34;;;11.77;83.70
80712;BME280;70078;51.596;5.678;2023-09-30T02:02:43;102417.88;;;11.77;84.42
80712;BME280;70078;51.596;5.678;2023-09-30T02:05:09;102390.06;;;11.59;84.24
80712;BME280;70078;51.596;5.678;2023-09-30T02:07:35;102434.75;;;11.78;83.88
80712;BME280;70078;51.596;5.678;2023-09-30T02:10:00;102394.41;;;11.50;83.92
80712;BME280;70078;51.596;5.678;2023-09-30T02:12:27;102432.75;;;11.70;83.97
80712;BME280;70078;51.596;5.678;2023-09-30T02:14:53;102383.78;;;11.39;84.12
80712;BME280;70078;51.596;5.678;2023-09-30T02:17:18;102399.25;;;11.35;83.85
80712;BME280;70078;51.596;5.678;2023-09-30T02:19:44;102379.41;;;11.07;84.57
80712;BME280;70078;51.596;5.678;2023-09-30T02:22:10;102395.72;;;11.04;84.42
80712;BME280;70078;51.596;5.678;2023-09-30T02:24:35;102461.50;;;11.47;85.01
80712;BME280;70078;51.596;5.678;2023-09-30T02:27:00;102437.78;;;11.33;85.36
80712;BME280;70078;51.596;5.678;2023-09-30T02:29:26;102473.25;;;11.56;85.58
80712;BME280;70078;51.596;5.678;2023-09-30T02:31:51;102432.44;;;11.33;85.35
80712;BME280;70078;51.596;5.678;2023-09-30T02:34:16;102475.13;;;11.65;85.04
80712;BME280;70078;51.596;5.678;2023-09-30T02:36:42;102376.28;;;11.02;85.08
80712;BME280;70078;51.596;5.678;2023-09-30T02:39:07;102401.44;;;11.21;85.51
80712;BME280;70078;51.596;5.678;2023-09-30T02:41:36;102397.16;;;11.39;85.94
80712;BME280;70078;51.596;5.678;2023-09-30T02:44:03;102434.94;;;11.55;85.98
80712;BME280;70078;51.596;5.678;2023-09-30T02:46:28;102393.19;;;11.33;85.73
80712;BME280;70078;51.596;5.678;2023-09-30T02:48:53;102453.19;;;11.71;85.53
80712;BME280;70078;51.596;5.678;2023-09-30T02:51:19;102440.94;;;11.68;85.14
80712;BME280;70078;51.596;5.678;2023-09-30T02:53:44;102441.06;;;11.67;84.81
80712;BME280;70078;51.596;5.678;2023-09-30T02:56:10;102420.72;;;11.55;84.66
80712;BME280;70078;51.596;5.678;2023-09-30T02:58:35;102452.09;;;11.74;84.78
80712;BME280;70078;51.596;5.678;2023-09-30T03:01:01;102425.88;;;11.67;85.45
80712;BME280;70078;51.596;5.678;2023-09-30T03:03:26;102387.44;;;11.38;85.42
80712;BME280;70078;51.596;5.678;2023-09-30T03:05:52;102420.78;;;11.64;85.57
80712;BME280;70078;51.596;5.678;2023-09-30T03:08:19;102425.84;;;11.58;85.18
80712;BME280;70078;51.596;5.678;2023-09-30T03:10:44;102406.34;;;11.46;85.04
80712;BME280;70078;51.596;5.678;2023-09-30T03:13:11;102421.84;;;11.52;85.07
80712;BME280;70078;51.596;5.678;2023-09-30T03:15:37;102417.03;;;11.46;84.78
80712;BME280;70078;51.596;5.678;2023-09-30T03:18:04;102451.97;;;11.54;84.36
80712;BME280;70078;51.596;5.678;2023-09-30T03:20:29;102435.13;;;11.63;84.57
80712;BME280;70078;51.596;5.678;2023-09-30T03:22:56;102417.75;;;11.48;84.67
80712;BME280;70078;51.596;5.678;2023-09-30T03:25:22;102455.25;;;11.58;84.94
80712;BME280;70078;51.596;5.678;2023-09-30T03:27:47;102396.09;;;11.21;84.48
80712;BME280;70078;51.596;5.678;2023-09-30T03:30:17;102445.22;;;11.50;84.40
80712;BME280;70078;51.596;5.678;2023-09-30T03:32:45;102372.22;;;11.08;84.15
80712;BME280;70078;51.596;5.678;2023-09-30T03:35:11;102405.41;;;11.26;84.09
80712;BME280;70078;51.596;5.678;2023-09-30T03:37:40;102410.03;;;11.24;84.36
80712;BME280;70078;51.596;5.678;2023-09-30T03:40:06;102431.84;;;11.50;85.26
80712;BME280;70078;51.596;5.678;2023-09-30T03:42:38;102372.00;;;10.90;85.98
80712;BME280;70078;51.596;5.678;2023-09-30T03:45:05;102419.13;;;11.12;86.36
80712;BME280;70078;51.596;5.678;2023-09-30T03:47:33;102356.22;;;10.66;85.96
80712;BME280;70078;51.596;5.678;2023-09-30T03:49:59;102406.91;;;10.98;85.13
80712;BME280;70078;51.596;5.678;2023-09-30T03:52:24;102392.56;;;10.99;85.43
80712;BME280;70078;51.596;5.678;2023-09-30T03:54:51;102431.81;;;11.20;85.54
80712;BME280;70078;51.596;5.678;2023-09-30T03:57:16;102423.72;;;11.10;85.72
80712;BME280;70078;51.596;5.678;2023-09-30T03:59:42;102448.38;;;11.34;85.83
80712;BME280;70078;51.596;5.678;2023-09-30T04:02:07;102432.91;;;11.17;85.24
80712;BME280;70078;51.596;5.678;2023-09-30T04:04:33;102440.69;;;11.20;85.46
80712;BME280;70078;51.596;5.678;2023-09-30T04:06:59;102347.38;;;10.66;85.68
80712;BME280;70078;51.596;5.678;2023-09-30T04:09:24;102375.88;;;10.86;85.63
80712;BME280;70078;51.596;5.678;2023-09-30T04:11:50;102382.88;;;10.98;85.20
80712;BME280;70078;51.596;5.678;2023-09-30T04:14:16;102435.78;;;11.25;85.14
80712;BME280;70078;51.596;5.678;2023-09-30T04:16:42;102435.19;;;11.22;84.89
80712;BME280;70078;51.596;5.678;2023-09-30T04:19:08;102438.84;;;11.21;84.82
80712;BME280;70078;51.596;5.678;2023-09-30T04:21:35;102410.13;;;10.92;84.80
80712;BME280;70078;51.596;5.678;2023-09-30T04:24:00;102394.88;;;10.83;84.95
80712;BME280;70078;51.596;5.678;2023-09-30T04:26:27;102410.56;;;10.97;84.75
80712;BME280;70078;51.596;5.678;2023-09-30T04:28:52;102443.59;;;11.17;85.16
80712;BME280;70078;51.596;5.678;2023-09-30T04:31:19;102443.75;;;11.16;85.13
80712;BME280;70078;51.596;5.678;2023-09-30T04:33:44;102418.78;;;11.05;85.91
80712;BME280;70078;51.596;5.678;2023-09-30T04:36:10;102434.53;;;11.08;85.95
80712;BME280;70078;51.596;5.678;2023-09-30T04:38:36;102420.16;;;11.00;86.06
80712;BME280;70078;51.596;5.678;2023-09-30T04:41:04;102444.34;;;11.19;86.90
80712;BME280;70078;51.596;5.678;2023-09-30T04:43:32;102446.47;;;11.25;86.00
80712;BME280;70078;51.596;5.678;2023-09-30T04:45:58;102427.31;;;10.99;86.31
80712;BME280;70078;51.596;5.678;2023-09-30T04:48:23;102359.34;;;10.71;85.23
80712;BME280;70078;51.596;5.678;2023-09-30T04:50:49;102452.78;;;11.24;86.05
80712;BME280;70078;51.596;5.678;2023-09-30T04:53:14;102464.09;;;11.28;86.45
80712;BME280;70078;51.596;5.678;2023-09-30T04:55:43;102433.50;;;11.00;85.94
80712;BME280;70078;51.596;5.678;2023-09-30T04:58:08;102368.28;;;10.61;85.52
80712;BME280;70078;51.596;5.678;2023-09-30T05:00:33;102415.19;;;10.95;85.76
80712;BME280;70078;51.596;5.678;2023-09-30T05:03:00;102376.81;;;10.75;86.02
80712;BME280;70078;51.596;5.678;2023-09-30T05:05:25;102467.19;;;11.33;86.01
80712;BME280;70078;51.596;5.678;2023-09-30T05:07:51;102404.38;;;10.97;86.09
80712;BME280;70078;51.596;5.678;2023-09-30T05:10:16;102428.13;;;11.11;85.62
80712;BME280;70078;51.596;5.678;2023-09-30T05:12:43;102436.00;;;11.13;85.24
80712;BME280;70078;51.596;5.678;2023-09-30T05:15:14;102410.56;;;10.97;85.15
80712;BME280;70078;51.596;5.678;2023-09-30T05:17:44;102441.84;;;11.06;85.03
80712;BME280;70078;51.596;5.678;2023-09-30T05:20:10;102480.31;;;11.36;85.55
80712;BME280;70078;51.596;5.678;2023-09-30T05:22:37;102434.97;;;11.04;85.30
80712;BME280;70078;51.596;5.678;2023-09-30T05:25:04;102470.66;;;11.24;85.19
80712;BME280;70078;51.596;5.678;2023-09-30T05:27:29;102425.66;;;10.87;84.96
80712;BME280;70078;51.596;5.678;2023-09-30T05:29:55;102449.41;;;11.01;84.57
80712;BME280;70078;51.596;5.678;2023-09-30T05:32:21;102493.31;;;11.20;84.67
80712;BME280;70078;51.596;5.678;2023-09-30T05:34:47;102481.56;;;11.11;84.91
80712;BME280;70078;51.596;5.678;2023-09-30T05:37:13;102391.84;;;10.55;85.22
80712;BME280;70078;51.596;5.678;2023-09-30T05:39:38;102396.41;;;10.65;85.04
80712;BME280;70078;51.596;5.678;2023-09-30T05:42:04;102424.63;;;10.78;84.99
80712;BME280;70078;51.596;5.678;2023-09-30T05:44:30;102468.72;;;11.05;84.52
80712;BME280;70078;51.596;5.678;2023-09-30T05:46:57;102470.22;;;10.98;84.66
80712;BME280;70078;51.596;5.678;2023-09-30T05:49:22;102494.06;;;11.10;84.76
80712;BME280;70078;51.596;5.678;2023-09-30T05:51:47;102468.88;;;10.92;85.01
80712;BME280;70078;51.596;5.678;2023-09-30T05:54:12;102474.91;;;11.05;85.74
80712;BME280;70078;51.596;5.678;2023-09-30T05:56:38;102493.41;;;11.18;85.96
80712;BME280;70078;51.596;5.678;2023-09-30T05:59:04;102482.94;;;11.05;85.50
80712;BME280;70078;51.596;5.678;2023-09-30T06:01:31;102492.25;;;11.11;85.26
80712;BME280;70078;51.596;5.678;2023-09-30T06:03:57;102437.13;;;10.78;85.15
80712;BME280;70078;51.596;5.678;2023-09-30T06:06:23;102501.97;;;11.12;85.01
80712;BME280;70078;51.596;5.678;2023-09-30T06:08:49;102461.00;;;10.91;85.03
80712;BME280;70078;51.596;5.678;2023-09-30T06:11:21;102514.34;;;11.13;85.23
80712;BME280;70078;51.596;5.678;2023-09-30T06:13:51;102511.91;;;11.10;85.06
80712;BME280;70078;51.596;5.678;2023-09-30T06:16:18;102398.66;;;10.48;85.29
80712;BME280;70078;51.596;5.678;2023-09-30T06:18:43;102494.53;;;11.16;85.07
80712;BME280;70078;51.596;5.678;2023-09-30T06:21:10;102489.19;;;11.16;85.39
80712;BME280;70078;51.596;5.678;2023-09-30T06:23:35;102456.13;;;10.96;85.33
80712;BME280;70078;51.596;5.678;2023-09-30T06:26:00;102498.09;;;11.26;85.88
80712;BME280;70078;51.596;5.678;2023-09-30T06:28:27;102493.22;;;11.31;86.11
80712;BME280;70078;51.596;5.678;2023-09-30T06:30:57;102467.28;;;11.22;86.45
80712;BME280;70078;51.596;5.678;2023-09-30T06:33:22;102447.53;;;11.13;86.30
80712;BME280;70078;51.596;5.678;2023-09-30T06:35:48;102446.22;;;11.28;86.86
80712;BME280;70078;51.596;5.678;2023-09-30T06:38:20;102480.41;;;11.55;86.71
80712;BME280;70078;51.596;5.678;2023-09-30T06:40:45;102450.78;;;11.37;86.74
80712;BME280;70078;51.596;5.678;2023-09-30T06:43:13;102431.28;;;11.26;87.03
80712;BME280;70078;51.596;5.678;2023-09-30T06:45:41;102440.59;;;11.31;87.54
80712;BME280;70078;51.596;5.678;2023-09-30T06:48:07;102434.88;;;11.36;87.38
80712;BME280;70078;51.596;5.678;2023-09-30T06:50:38;102480.34;;;11.66;87.98
80712;BME280;70078;51.596;5.678;2023-09-30T06:53:04;102471.47;;;11.66;88.12
80712;BME280;70078;51.596;5.678;2023-09-30T06:55:31;102439.88;;;11.50;87.70
80712;BME280;70078;51.596;5.678;2023-09-30T06:57:57;102499.78;;;11.89;87.68
80712;BME280;70078;51.596;5.678;2023-09-30T07:00:22;102514.56;;;11.93;87.78
80712;BME280;70078;51.596;5.678;2023-09-30T07:02:47;102520.97;;;12.02;87.60
80712;BME280;70078;51.596;5.678;2023-09-30T07:05:14;102531.56;;;12.13;87.79
80712;BME280;70078;51.596;5.678;2023-09-30T07:07:40;102548.28;;;12.36;88.22
80712;BME280;70078;51.596;5.678;2023-09-30T07:10:08;102540.22;;;12.27;88.41
80712;BME280;70078;51.596;5.678;2023-09-30T07:12:34;102546.19;;;12.40;88.79
80712;BME280;70078;51.596;5.678;2023-09-30T07:15:01;102529.22;;;12.30;88.61
80712;BME280;70078;51.596;5.678;2023-09-30T07:17:28;102551.88;;;12.56;88.80
80712;BME280;70078;51.596;5.678;2023-09-30T07:19:53;102541.41;;;12.53;88.57
80712;BME280;70078;51.596;5.678;2023-09-30T07:22:19;102536.06;;;12.53;88.81
80712;BME280;70078;51.596;5.678;2023-09-30T07:24:44;102465.81;;;12.30;88.67
80712;BME280;70078;51.596;5.678;2023-09-30T07:27:09;102507.31;;;12.65;88.52
80712;BME280;70078;51.596;5.678;2023-09-30T07:29:35;102512.69;;;12.74;88.21
80712;BME280;70078;51.596;5.678;2023-09-30T07:32:00;102561.41;;;13.09;88.70
80712;BME280;70078;51.596;5.678;2023-09-30T07:34:26;102570.00;;;13.12;88.71
80712;BME280;70078;51.596;5.678;2023-09-30T07:36:51;102524.28;;;12.94;88.65
80712;BME280;70078;51.596;5.678;2023-09-30T07:39:17;102564.22;;;13.17;88.73
80712;BME280;70078;51.596;5.678;2023-09-30T07:41:42;102559.03;;;13.25;88.89
80712;BME280;70078;51.596;5.678;2023-09-30T07:44:08;102601.06;;;13.63;88.90
80712;BME280;70078;51.596;5.678;2023-09-30T07:46:34;102570.28;;;13.57;88.34
80712;BME280;70078;51.596;5.678;2023-09-30T07:49:00;102552.22;;;13.50;88.41
80712;BME280;70078;51.596;5.678;2023-09-30T07:51:25;102524.81;;;13.56;87.30
80712;BME280;70078;51.596;5.678;2023-09-30T07:53:51;102529.03;;;13.68;87.63
80712;BME280;70078;51.596;5.678;2023-09-30T07:56:17;102572.41;;;14.10;87.49
80712;BME280;70078;51.596;5.678;2023-09-30T07:58:42;102537.97;;;13.96;88.08
80712;BME280;70078;51.596;5.678;2023-09-30T08:01:08;102588.94;;;14.43;87.57
80712;BME280;70078;51.596;5.678;2023-09-30T08:03:33;102575.09;;;14.48;87.45
80712;BME280;70078;51.596;5.678;2023-09-30T08:06:00;102566.53;;;14.62;87.30
80712;BME280;70078;51.596;5.678;2023-09-30T08:08:25;102556.38;;;14.56;86.95
80712;BME280;70078;51.596;5.678;2023-09-30T08:10:50;102553.03;;;14.71;86.65
80712;BME280;70078;51.596;5.678;2023-09-30T08:13:20;102564.50;;;14.74;86.26
80712;BME280;70078;51.596;5.678;2023-09-30T08:15:45;102582.84;;;14.96;85.27
80712;BME280;70078;51.596;5.678;2023-09-30T08:18:11;102534.44;;;14.78;85.25
80712;BME280;70078;51.596;5.678;2023-09-30T08:20:36;102541.06;;;15.02;85.35
80712;BME280;70078;51.596;5.678;2023-09-30T08:23:02;102584.09;;;15.37;85.42
80712;BME280;70078;51.596;5.678;2023-09-30T08:25:28;102509.47;;;15.21;85.05
80712;BME280;70078;51.596;5.678;2023-09-30T08:27:53;102563.28;;;15.83;83.23
80712;BME280;70078;51.596;5.678;2023-09-30T08:30:19;102495.22;;;15.73;82.56
80712;BME280;70078;51.596;5.678;2023-09-30T08:32:45;102513.94;;;16.17;82.92
80712;BME280;70078;51.596;5.678;2023-09-30T08:35:11;102559.53;;;16.86;82.31
80712;BME280;70078;51.596;5.678;2023-09-30T08:37:39;102493.25;;;16.84;80.37
80712;BME280;70078;51.596;5.678;2023-09-30T08:40:05;102545.72;;;17.30;80.60
80712;BME280;70078;51.596;5.678;2023-09-30T08:42:32;102568.97;;;17.88;79.42
80712;BME280;70078;51.596;5.678;2023-09-30T08:44:58;102551.84;;;18.12;77.39
80712;BME280;70078;51.596;5.678;2023-09-30T08:47:26;102552.03;;;18.50;77.22
80712;BME280;70078;51.596;5.678;2023-09-30T08:49:54;102502.97;;;18.61;74.60
80712;BME280;70078;51.596;5.678;2023-09-30T08:52:23;102555.38;;;19.37;73.12
80712;BME280;70078;51.596;5.678;2023-09-30T08:54:48;102533.88;;;19.35;72.45
80712;BME280;70078;51.596;5.678;2023-09-30T08:57:14;102557.25;;;19.74;71.60
80712;BME280;70078;51.596;5.678;2023-09-30T08:59:44;102536.69;;;19.94;72.59
80712;BME280;70078;51.596;5.678;2023-09-30T09:02:09;102551.44;;;20.36;68.06
80712;BME280;70078;51.596;5.678;2023-09-30T09:04:36;102540.28;;;20.61;66.29
80712;BME280;70078;51.596;5.678;2023-09-30T09:07:02;102523.94;;;20.75;65.78
80712;BME280;70078;51.596;5.678;2023-09-30T09:09:28;102541.44;;;21.09;66.65
80712;BME280;70078;51.596;5.678;2023-09-30T09:11:53;102542.69;;;21.56;64.81
80712;BME280;70078;51.596;5.678;2023-09-30T09:14:18;102568.59;;;22.08;63.42
80712;BME280;70078;51.596;5.678;2023-09-30T09:16:56;102547.13;;;21.98;62.99
80712;BME280;70078;51.596;5.678;2023-09-30T09:19:22;102565.16;;;22.34;60.27
80712;BME280;70078;51.596;5.678;2023-09-30T09:21:59;102561.59;;;22.33;60.13
80712;BME280;70078;51.596;5.678;2023-09-30T09:24:36;102583.28;;;22.20;60.08
80712;BME280;70078;51.596;5.678;2023-09-30T09:27:13;102594.75;;;22.57;59.72
80712;BME280;70078;51.596;5.678;2023-09-30T09:29:42;102585.53;;;22.51;58.33
80712;BME280;70078;51.596;5.678;2023-09-30T09:32:11;102586.88;;;22.68;58.12
80712;BME280;70078;51.596;5.678;2023-09-30T09:34:41;102537.66;;;22.77;57.36
80712;BME280;70078;51.596;5.678;2023-09-30T09:37:20;102599.59;;;23.16;56.15
80712;BME280;70078;51.596;5.678;2023-09-30T09:39:54;102601.88;;;23.06;57.00
80712;BME280;70078;51.596;5.678;2023-09-30T09:42:29;102596.25;;;23.40;55.72
80712;BME280;70078;51.596;5.678;2023-09-30T09:44:58;102615.38;;;23.67;56.07
80712;BME280;70078;51.596;5.678;2023-09-30T09:47:24;102615.56;;;23.92;53.78
80712;BME280;70078;51.596;5.678;2023-09-30T09:49:51;102621.84;;;24.12;54.41
80712;BME280;70078;51.596;5.678;2023-09-30T09:52:18;102627.66;;;24.49;52.39
80712;BME280;70078;51.596;5.678;2023-09-30T09:54:44;102599.03;;;24.58;53.54
80712;BME280;70078;51.596;5.678;2023-09-30T09:57:10;102603.34;;;24.79;51.22
80712;BME280;70078;51.596;5.678;2023-09-30T09:59:36;102591.19;;;24.68;54.83
80712;BME280;70078;51.596;5.678;2023-09-30T10:02:10;102582.03;;;24.94;52.23
80712;BME280;70078;51.596;5.678;2023-09-30T10:04:37;102597.25;;;25.15;49.45
80712;BME280;70078;51.596;5.678;2023-09-30T10:07:04;102594.72;;;25.20;52.10
80712;BME280;70078;51.596;5.678;2023-09-30T10:09:34;102543.22;;;25.17;49.44
80712;BME280;70078;51.596;5.678;2023-09-30T10:12:01;102580.72;;;25.60;47.99
80712;BME280;70078;51.596;5.678;2023-09-30T10:14:30;102618.94;;;25.91;46.51
80712;BME280;70078;51.596;5.678;2023-09-30T10:16:57;102622.38;;;25.62;46.09
80712;BME280;70078;51.596;5.678;2023-09-30T10:19:23;102612.25;;;25.06;45.69
80712;BME280;70078;51.596;5.678;2023-09-30T10:24:46;102639.34;;;25.07;47.64
80712;BME280;70078;51.596;5.678;2023-09-30T10:29:48;102621.91;;;25.65;47.62
80712;BME280;70078;51.596;5.678;2023-09-30T10:32:18;102613.88;;;25.70;46.93
80712;BME280;70078;51.596;5.678;2023-09-30T10:34:50;102608.47;;;25.63;46.90
80712;BME280;70078;51.596;5.678;2023-09-30T10:37:21;102602.69;;;25.96;44.66
80712;BME280;70078;51.596;5.678;2023-09-30T10:39:58;102591.75;;;25.96;46.21
80712;BME280;70078;51.596;5.678;2023-09-30T10:42:56;102544.09;;;26.04;46.65
80712;BME280;70078;51.596;5.678;2023-09-30T10:45:43;102544.28;;;25.84;44.79
80712;BME280;70078;51.596;5.678;2023-09-30T10:50:58;102568.88;;;26.09;44.75
80712;BME280;70078;51.596;5.678;2023-09-30T10:53:29;102578.38;;;26.07;44.43
80712;BME280;70078;51.596;5.678;2023-09-30T10:55:57;102586.00;;;26.23;45.49
80712;BME280;70078;51.596;5.678;2023-09-30T10:58:42;102575.25;;;26.58;42.82
80712;BME280;70078;51.596;5.678;2023-09-30T11:01:08;102572.06;;;26.61;43.97
80712;BME280;70078;51.596;5.678;2023-09-30T11:03:35;102559.28;;;26.55;44.37
80712;BME280;70078;51.596;5.678;2023-09-30T11:06:02;102536.84;;;26.46;46.69
80712;BME280;70078;51.596;5.678;2023-09-30T11:08:29;102502.91;;;26.77;46.70
80712;BME280;70078;51.596;5.678;2023-09-30T11:10:57;102540.72;;;27.76;40.20
80712;BME280;70078;51.596;5.678;2023-09-30T11:13:31;102524.47;;;27.16;41.73
80712;BME280;70078;51.596;5.678;2023-09-30T11:16:00;102571.22;;;28.14;41.62
80712;BME280;70078;51.596;5.678;2023-09-30T11:18:27;102543.44;;;27.99;39.82
80712;BME280;70078;51.596;5.678;2023-09-30T11:21:06;102532.81;;;27.56;40.53
80712;BME280;70078;51.596;5.678;2023-09-30T11:23:32;102569.13;;;27.81;39.61
80712;BME280;70078;51.596;5.678;2023-09-30T11:25:58;102563.13;;;27.49;42.25
80712;BME280;70078;51.596;5.678;2023-09-30T11:28:24;102514.13;;;27.53;40.57
80712;BME280;70078;51.596;5.678;2023-09-30T11:33:20;102545.50;;;27.69;43.18
80712;BME280;70078;51.596;5.678;2023-09-30T11:35:59;102502.41;;;27.34;42.73
80712;BME280;70078;51.596;5.678;2023-09-30T11:38:26;102520.22;;;28.30;38.72
80712;BME280;70078;51.596;5.678;2023-09-30T11:43:27;102529.16;;;28.26;42.28
80712;BME280;70078;51.596;5.678;2023-09-30T11:46:07;102534.78;;;28.88;39.19
80712;BME280;70078;51.596;5.678;2023-09-30T11:48:37;102546.97;;;28.92;37.67
80712;BME280;70078;51.596;5.678;2023-09-30T11:51:04;102549.81;;;28.97;37.25
80712;BME280;70078;51.596;5.678;2023-09-30T11:53:34;102545.47;;;29.01;38.06
80712;BME280;70078;51.596;5.678;2023-09-30T11:56:01;102537.91;;;29.08;34.04
80712;BME280;70078;51.596;5.678;2023-09-30T11:58:30;102505.25;;;28.66;35.80
80712;BME280;70078;51.596;5.678;2023-09-30T12:01:00;102535.28;;;28.56;38.05
80712;BME280;70078;51.596;5.678;2023-09-30T12:03:26;102553.22;;;28.59;39.91
80712;BME280;70078;51.596;5.678;2023-09-30T12:05:53;102556.22;;;28.05;40.01
80712;BME280;70078;51.596;5.678;2023-09-30T12:08:21;102561.41;;;28.42;38.83
80712;BME280;70078;51.596;5.678;2023-09-30T12:10:47;102571.50;;;28.53;38.64
80712;BME280;70078;51.596;5.678;2023-09-30T12:13:12;102540.13;;;27.97;39.01
80712;BME280;70078;51.596;5.678;2023-09-30T12:15:37;102555.75;;;27.85;39.73
80712;BME280;70078;51.596;5.678;2023-09-30T12:18:03;102546.34;;;27.69;38.03
80712;BME280;70078;51.596;5.678;2023-09-30T12:20:28;102550.75;;;27.58;37.96
80712;BME280;70078;51.596;5.678;2023-09-30T12:22:54;102524.81;;;27.07;39.29
80712;BME280;70078;51.596;5.678;2023-09-30T12:25:19;102539.72;;;26.81;39.39
80712;BME280;70078;51.596;5.678;2023-09-30T12:27:47;102519.34;;;26.77;40.18
80712;BME280;70078;51.596;5.678;2023-09-30T12:30:12;102521.22;;;27.19;37.66
80712;BME280;70078;51.596;5.678;2023-09-30T12:32:39;102522.53;;;27.04;39.68
80712;BME280;70078;51.596;5.678;2023-09-30T12:35:05;102507.69;;;26.52;39.33
80712;BME280;70078;51.596;5.678;2023-09-30T12:37:30;102512.41;;;26.45;40.79
80712;BME280;70078;51.596;5.678;2023-09-30T12:39:55;102503.47;;;26.68;37.50
80712;BME280;70078;51.596;5.678;2023-09-30T12:42:21;102499.63;;;26.57;37.70
80712;BME280;70078;51.596;5.678;2023-09-30T12:44:46;102499.03;;;26.67;38.13
80712;BME280;70078;51.596;5.678;2023-09-30T12:47:11;102503.16;;;26.46;38.02
80712;BME280;70078;51.596;5.678;2023-09-30T12:49:38;102516.03;;;26.45;38.54
80712;BME280;70078;51.596;5.678;2023-09-30T12:52:03;102487.44;;;26.23;40.01
80712;BME280;70078;51.596;5.678;2023-09-30T12:54:29;102500.22;;;26.59;37.70
80712;BME280;70078;51.596;5.678;2023-09-30T12:56:54;102453.34;;;26.19;37.56
80712;BME280;70078;51.596;5.678;2023-09-30T12:59:19;102469.06;;;25.93;39.83
80712;BME280;70078;51.596;5.678;2023-09-30T13:01:49;102487.94;;;26.32;39.22